Monaghan, Ireland
Current Conditions -  °F | °C
As of 2:20 PM on Tuesday 27 Jan 2015 (Local Time) from EGAA Reporting Station
Broken Clouds Broken Clouds  
Wind Chill: 39°   Ceiling: 2600
Heat Index: 45°   Visibility: 6mi
Dew Point: 43°   Wind: 12mph
Humidity: 93%   Direction: 220°SW
Pressure: 30.15"   Gusts: NA
Location:  54.25°N, 6.97°W
Report Text: EGAA 271420Z 22010KT 9999 SCT020 BKN026 07/06 Q1021
Loading
Personal Weather Stations






























Interactive Weather Map New forecast layout! Learn more

10-Day Weather Forecast

Advertisements
Track Severe Weather on mobile